sensor_id;sensor_type;location;lat;lon;timestamp;temperature;humidity
7666;DHT22;3875;46.562;4.898;2024-03-07T00:00:09;4.80;92.90
7666;DHT22;3875;46.562;4.898;2024-03-07T00:02:49;4.80;92.90
7666;DHT22;3875;46.562;4.898;2024-03-07T00:05:18;4.80;93.10
7666;DHT22;3875;46.562;4.898;2024-03-07T00:07:45;4.80;93.20
7666;DHT22;3875;46.562;4.898;2024-03-07T00:10:11;4.80;93.20
7666;DHT22;3875;46.562;4.898;2024-03-07T00:12:38;4.80;93.10
7666;DHT22;3875;46.562;4.898;2024-03-07T00:15:07;4.80;93.00
7666;DHT22;3875;46.562;4.898;2024-03-07T00:17:34;4.80;92.90
7666;DHT22;3875;46.562;4.898;2024-03-07T00:20:00;4.80;93.00
7666;DHT22;3875;46.562;4.898;2024-03-07T00:22:26;4.80;92.90
7666;DHT22;3875;46.562;4.898;2024-03-07T00:24:55;4.80;92.90
7666;DHT22;3875;46.562;4.898;2024-03-07T00:27:21;4.80;92.70
7666;DHT22;3875;46.562;4.898;2024-03-07T00:29:47;4.80;92.60
7666;DHT22;3875;46.562;4.898;2024-03-07T00:32:19;4.80;92.70
7666;DHT22;3875;46.562;4.898;2024-03-07T00:34:45;4.80;92.90
7666;DHT22;3875;46.562;4.898;2024-03-07T00:37:11;4.70;92.60
7666;DHT22;3875;46.562;4.898;2024-03-07T00:39:36;4.70;92.50
7666;DHT22;3875;46.562;4.898;2024-03-07T00:42:02;4.70;92.60
7666;DHT22;3875;46.562;4.898;2024-03-07T00:44:28;4.60;92.60
7666;DHT22;3875;46.562;4.898;2024-03-07T00:46:53;4.60;92.60
7666;DHT22;3875;46.562;4.898;2024-03-07T00:49:19;4.60;92.60
7666;DHT22;3875;46.562;4.898;2024-03-07T00:51:45;4.60;92.50
7666;DHT22;3875;46.562;4.898;2024-03-07T00:54:11;4.60;92.70
7666;DHT22;3875;46.562;4.898;2024-03-07T00:56:38;4.60;92.80
7666;DHT22;3875;46.562;4.898;2024-03-07T00:59:04;4.60;92.90
7666;DHT22;3875;46.562;4.898;2024-03-07T01:01:31;4.60;92.80
7666;DHT22;3875;46.562;4.898;2024-03-07T01:03:59;4.60;92.90
7666;DHT22;3875;46.562;4.898;2024-03-07T01:06:25;4.60;93.10
7666;DHT22;3875;46.562;4.898;2024-03-07T01:08:51;4.50;93.20
7666;DHT22;3875;46.562;4.898;2024-03-07T01:11:17;4.50;93.20
7666;DHT22;3875;46.562;4.898;2024-03-07T01:13:43;4.50;93.10
7666;DHT22;3875;46.562;4.898;2024-03-07T01:16:09;4.50;93.00
7666;DHT22;3875;46.562;4.898;2024-03-07T01:18:34;4.50;92.90
7666;DHT22;3875;46.562;4.898;2024-03-07T01:21:01;4.40;93.00
7666;DHT22;3875;46.562;4.898;2024-03-07T01:23:27;4.40;92.90
7666;DHT22;3875;46.562;4.898;2024-03-07T01:25:56;4.40;93.00
7666;DHT22;3875;46.562;4.898;2024-03-07T01:28:23;4.40;93.00
7666;DHT22;3875;46.562;4.898;2024-03-07T01:30:49;4.40;93.40
7666;DHT22;3875;46.562;4.898;2024-03-07T01:33:15;4.40;93.50
7666;DHT22;3875;46.562;4.898;2024-03-07T01:35:41;4.40;93.50
7666;DHT22;3875;46.562;4.898;2024-03-07T01:38:07;4.40;93.60
7666;DHT22;3875;46.562;4.898;2024-03-07T01:40:34;4.30;93.80
7666;DHT22;3875;46.562;4.898;2024-03-07T01:43:02;4.30;93.90
7666;DHT22;3875;46.562;4.898;2024-03-07T01:45:27;4.30;93.80
7666;DHT22;3875;46.562;4.898;2024-03-07T01:47:53;4.30;93.80
7666;DHT22;3875;46.562;4.898;2024-03-07T01:50:21;4.20;93.80
7666;DHT22;3875;46.562;4.898;2024-03-07T01:52:47;4.20;93.80
7666;DHT22;3875;46.562;4.898;2024-03-07T01:55:16;4.20;93.80
7666;DHT22;3875;46.562;4.898;2024-03-07T01:57:42;4.20;93.80
7666;DHT22;3875;46.562;4.898;2024-03-07T02:00:08;4.20;93.80
7666;DHT22;3875;46.562;4.898;2024-03-07T02:02:35;4.20;93.60
7666;DHT22;3875;46.562;4.898;2024-03-07T02:05:01;4.20;93.50
7666;DHT22;3875;46.562;4.898;2024-03-07T02:07:27;4.20;93.50
7666;DHT22;3875;46.562;4.898;2024-03-07T02:10:03;4.20;93.70
7666;DHT22;3875;46.562;4.898;2024-03-07T02:12:32;4.20;93.70
7666;DHT22;3875;46.562;4.898;2024-03-07T02:14:58;4.20;93.70
7666;DHT22;3875;46.562;4.898;2024-03-07T02:17:27;4.10;93.50
7666;DHT22;3875;46.562;4.898;2024-03-07T02:19:52;4.10;93.50
7666;DHT22;3875;46.562;4.898;2024-03-07T02:22:19;4.10;93.60
7666;DHT22;3875;46.562;4.898;2024-03-07T02:24:45;4.00;93.60
7666;DHT22;3875;46.562;4.898;2024-03-07T02:27:12;4.00;93.60
7666;DHT22;3875;46.562;4.898;2024-03-07T02:29:38;4.00;93.50
7666;DHT22;3875;46.562;4.898;2024-03-07T02:32:03;3.90;93.60
7666;DHT22;3875;46.562;4.898;2024-03-07T02:34:29;3.90;93.60
7666;DHT22;3875;46.562;4.898;2024-03-07T02:36:55;3.80;93.60
7666;DHT22;3875;46.562;4.898;2024-03-07T02:39:21;3.80;93.60
7666;DHT22;3875;46.562;4.898;2024-03-07T02:41:47;3.80;93.40
7666;DHT22;3875;46.562;4.898;2024-03-07T02:44:13;3.80;93.50
7666;DHT22;3875;46.562;4.898;2024-03-07T02:46:40;3.70;93.50
7666;DHT22;3875;46.562;4.898;2024-03-07T02:49:05;3.70;93.60
7666;DHT22;3875;46.562;4.898;2024-03-07T02:51:31;3.60;93.80
7666;DHT22;3875;46.562;4.898;2024-03-07T02:53:57;3.70;93.90
7666;DHT22;3875;46.562;4.898;2024-03-07T02:56:23;3.70;94.10
7666;DHT22;3875;46.562;4.898;2024-03-07T02:58:50;3.70;94.20
7666;DHT22;3875;46.562;4.898;2024-03-07T03:01:16;3.70;94.20
7666;DHT22;3875;46.562;4.898;2024-03-07T03:03:42;3.70;94.30
7666;DHT22;3875;46.562;4.898;2024-03-07T03:06:08;3.70;94.50
7666;DHT22;3875;46.562;4.898;2024-03-07T03:08:34;3.80;94.60
7666;DHT22;3875;46.562;4.898;2024-03-07T03:11:01;3.80;94.50
7666;DHT22;3875;46.562;4.898;2024-03-07T03:13:26;3.80;94.30
7666;DHT22;3875;46.562;4.898;2024-03-07T03:15:55;3.80;94.30
7666;DHT22;3875;46.562;4.898;2024-03-07T03:18:25;3.80;94.60
7666;DHT22;3875;46.562;4.898;2024-03-07T03:20:50;3.80;94.50
7666;DHT22;3875;46.562;4.898;2024-03-07T03:23:18;3.80;94.40
7666;DHT22;3875;46.562;4.898;2024-03-07T03:25:44;3.80;94.50
7666;DHT22;3875;46.562;4.898;2024-03-07T03:28:11;3.80;94.40
7666;DHT22;3875;46.562;4.898;2024-03-07T03:30:38;3.80;94.60
7666;DHT22;3875;46.562;4.898;2024-03-07T03:33:04;3.80;94.60
7666;DHT22;3875;46.562;4.898;2024-03-07T03:35:31;3.70;94.80
7666;DHT22;3875;46.562;4.898;2024-03-07T03:37:57;3.80;94.90
7666;DHT22;3875;46.562;4.898;2024-03-07T03:40:22;3.80;94.90
7666;DHT22;3875;46.562;4.898;2024-03-07T03:42:48;3.80;94.60
7666;DHT22;3875;46.562;4.898;2024-03-07T03:45:14;3.80;94.50
7666;DHT22;3875;46.562;4.898;2024-03-07T03:47:41;3.70;94.60
7666;DHT22;3875;46.562;4.898;2024-03-07T03:50:09;3.70;94.80
7666;DHT22;3875;46.562;4.898;2024-03-07T03:52:35;3.70;95.00
7666;DHT22;3875;46.562;4.898;2024-03-07T03:55:02;3.70;94.90
7666;DHT22;3875;46.562;4.898;2024-03-07T03:57:29;3.70;95.10
7666;DHT22;3875;46.562;4.898;2024-03-07T03:59:55;3.70;95.00
7666;DHT22;3875;46.562;4.898;2024-03-07T04:02:22;3.60;95.10
7666;DHT22;3875;46.562;4.898;2024-03-07T04:04:51;3.60;95.10
7666;DHT22;3875;46.562;4.898;2024-03-07T04:07:18;3.60;95.10
7666;DHT22;3875;46.562;4.898;2024-03-07T04:09:47;3.60;95.00
7666;DHT22;3875;46.562;4.898;2024-03-07T04:12:13;3.60;94.90
7666;DHT22;3875;46.562;4.898;2024-03-07T04:14:42;3.60;94.80
7666;DHT22;3875;46.562;4.898;2024-03-07T04:17:11;3.60;94.90
7666;DHT22;3875;46.562;4.898;2024-03-07T04:19:41;3.50;94.80
7666;DHT22;3875;46.562;4.898;2024-03-07T04:22:07;3.50;94.90
7666;DHT22;3875;46.562;4.898;2024-03-07T04:24:34;3.50;94.90
7666;DHT22;3875;46.562;4.898;2024-03-07T04:27:00;3.50;94.90
7666;DHT22;3875;46.562;4.898;2024-03-07T04:29:27;3.40;94.90
7666;DHT22;3875;46.562;4.898;2024-03-07T04:31:53;3.40;94.90
7666;DHT22;3875;46.562;4.898;2024-03-07T04:34:18;3.40;95.00
7666;DHT22;3875;46.562;4.898;2024-03-07T04:36:44;3.40;95.10
7666;DHT22;3875;46.562;4.898;2024-03-07T04:39:10;3.40;95.20
7666;DHT22;3875;46.562;4.898;2024-03-07T04:41:55;3.40;95.30
7666;DHT22;3875;46.562;4.898;2024-03-07T04:44:21;3.40;95.40
7666;DHT22;3875;46.562;4.898;2024-03-07T04:46:50;3.40;95.40
7666;DHT22;3875;46.562;4.898;2024-03-07T04:49:21;3.40;95.30
7666;DHT22;3875;46.562;4.898;2024-03-07T04:51:49;3.40;95.20
7666;DHT22;3875;46.562;4.898;2024-03-07T04:54:14;3.30;95.10
7666;DHT22;3875;46.562;4.898;2024-03-07T04:56:40;3.30;95.20
7666;DHT22;3875;46.562;4.898;2024-03-07T04:59:06;3.30;95.30
7666;DHT22;3875;46.562;4.898;2024-03-07T05:01:32;3.30;95.60
7666;DHT22;3875;46.562;4.898;2024-03-07T05:03:57;3.30;95.80
7666;DHT22;3875;46.562;4.898;2024-03-07T05:06:23;3.30;95.90
7666;DHT22;3875;46.562;4.898;2024-03-07T05:08:49;3.30;95.80
7666;DHT22;3875;46.562;4.898;2024-03-07T05:11:14;3.30;96.00
7666;DHT22;3875;46.562;4.898;2024-03-07T05:13:41;3.30;95.90
7666;DHT22;3875;46.562;4.898;2024-03-07T05:16:08;3.30;95.60
7666;DHT22;3875;46.562;4.898;2024-03-07T05:18:33;3.30;95.50
7666;DHT22;3875;46.562;4.898;2024-03-07T05:20:59;3.20;95.80
7666;DHT22;3875;46.562;4.898;2024-03-07T05:23:44;3.20;96.00
7666;DHT22;3875;46.562;4.898;2024-03-07T05:26:10;3.20;96.10
7666;DHT22;3875;46.562;4.898;2024-03-07T05:28:36;3.20;96.00
7666;DHT22;3875;46.562;4.898;2024-03-07T05:31:02;3.20;96.20
7666;DHT22;3875;46.562;4.898;2024-03-07T05:33:29;3.30;96.50
7666;DHT22;3875;46.562;4.898;2024-03-07T05:35:55;3.30;96.40
7666;DHT22;3875;46.562;4.898;2024-03-07T05:38:39;3.30;96.50
7666;DHT22;3875;46.562;4.898;2024-03-07T05:41:04;3.30;96.50
7666;DHT22;3875;46.562;4.898;2024-03-07T05:43:30;3.30;96.70
7666;DHT22;3875;46.562;4.898;2024-03-07T05:45:57;3.20;96.70
7666;DHT22;3875;46.562;4.898;2024-03-07T05:48:26;3.20;96.60
7666;DHT22;3875;46.562;4.898;2024-03-07T05:50:51;3.20;96.50
7666;DHT22;3875;46.562;4.898;2024-03-07T05:53:18;3.20;96.50
7666;DHT22;3875;46.562;4.898;2024-03-07T05:55:43;3.20;96.60
7666;DHT22;3875;46.562;4.898;2024-03-07T05:58:09;3.20;96.60
7666;DHT22;3875;46.562;4.898;2024-03-07T06:00:35;3.20;96.50
7666;DHT22;3875;46.562;4.898;2024-03-07T06:03:04;3.10;96.30
7666;DHT22;3875;46.562;4.898;2024-03-07T06:05:30;3.10;96.30
7666;DHT22;3875;46.562;4.898;2024-03-07T06:07:56;3.10;96.30
7666;DHT22;3875;46.562;4.898;2024-03-07T06:10:22;3.10;96.40
7666;DHT22;3875;46.562;4.898;2024-03-07T06:12:52;3.10;96.80
7666;DHT22;3875;46.562;4.898;2024-03-07T06:15:18;3.20;97.10
7666;DHT22;3875;46.562;4.898;2024-03-07T06:17:44;3.20;97.00
7666;DHT22;3875;46.562;4.898;2024-03-07T06:20:12;3.20;96.90
7666;DHT22;3875;46.562;4.898;2024-03-07T06:22:48;3.20;97.00
7666;DHT22;3875;46.562;4.898;2024-03-07T06:25:20;3.20;97.00
7666;DHT22;3875;46.562;4.898;2024-03-07T06:27:59;3.20;97.30
7666;DHT22;3875;46.562;4.898;2024-03-07T06:30:24;3.30;97.40
7666;DHT22;3875;46.562;4.898;2024-03-07T06:32:51;3.30;97.50
7666;DHT22;3875;46.562;4.898;2024-03-07T06:35:17;3.40;97.60
7666;DHT22;3875;46.562;4.898;2024-03-07T06:37:45;3.40;97.50
7666;DHT22;3875;46.562;4.898;2024-03-07T06:40:11;3.50;97.40
7666;DHT22;3875;46.562;4.898;2024-03-07T06:42:36;3.60;97.60
7666;DHT22;3875;46.562;4.898;2024-03-07T06:45:03;3.60;97.50
7666;DHT22;3875;46.562;4.898;2024-03-07T06:47:29;3.70;97.40
7666;DHT22;3875;46.562;4.898;2024-03-07T06:49:55;3.80;97.40
7666;DHT22;3875;46.562;4.898;2024-03-07T06:52:21;3.90;97.30
7666;DHT22;3875;46.562;4.898;2024-03-07T06:54:47;4.00;97.20
7666;DHT22;3875;46.562;4.898;2024-03-07T06:57:13;4.10;96.90
7666;DHT22;3875;46.562;4.898;2024-03-07T06:59:38;4.20;96.70
7666;DHT22;3875;46.562;4.898;2024-03-07T07:02:04;4.30;96.60
7666;DHT22;3875;46.562;4.898;2024-03-07T07:04:30;4.30;96.10
7666;DHT22;3875;46.562;4.898;2024-03-07T07:07:09;4.40;96.00
7666;DHT22;3875;46.562;4.898;2024-03-07T07:09:38;4.50;96.00
7666;DHT22;3875;46.562;4.898;2024-03-07T07:12:04;4.60;95.90
7666;DHT22;3875;46.562;4.898;2024-03-07T07:14:30;4.70;95.60
7666;DHT22;3875;46.562;4.898;2024-03-07T07:16:55;4.80;95.50
7666;DHT22;3875;46.562;4.898;2024-03-07T07:19:22;4.90;95.30
7666;DHT22;3875;46.562;4.898;2024-03-07T07:21:48;4.90;94.80
7666;DHT22;3875;46.562;4.898;2024-03-07T07:24:19;5.00;94.70
7666;DHT22;3875;46.562;4.898;2024-03-07T07:26:47;5.00;94.70
7666;DHT22;3875;46.562;4.898;2024-03-07T07:29:13;5.10;94.70
7666;DHT22;3875;46.562;4.898;2024-03-07T07:31:38;5.20;94.50
7666;DHT22;3875;46.562;4.898;2024-03-07T07:34:04;5.30;94.30
7666;DHT22;3875;46.562;4.898;2024-03-07T07:36:31;5.40;94.20
7666;DHT22;3875;46.562;4.898;2024-03-07T07:38:57;5.50;94.10
7666;DHT22;3875;46.562;4.898;2024-03-07T07:41:24;5.60;93.80
7666;DHT22;3875;46.562;4.898;2024-03-07T07:43:49;5.80;93.20
7666;DHT22;3875;46.562;4.898;2024-03-07T07:46:17;5.80;93.00
7666;DHT22;3875;46.562;4.898;2024-03-07T07:48:43;6.00;92.70
7666;DHT22;3875;46.562;4.898;2024-03-07T07:51:09;6.10;92.50
7666;DHT22;3875;46.562;4.898;2024-03-07T07:53:35;6.10;92.20
7666;DHT22;3875;46.562;4.898;2024-03-07T07:56:01;6.20;92.00
7666;DHT22;3875;46.562;4.898;2024-03-07T07:58:26;6.20;91.80
7666;DHT22;3875;46.562;4.898;2024-03-07T08:00:53;6.40;91.80
7666;DHT22;3875;46.562;4.898;2024-03-07T08:03:18;6.40;91.30
7666;DHT22;3875;46.562;4.898;2024-03-07T08:05:45;6.50;91.40
7666;DHT22;3875;46.562;4.898;2024-03-07T08:08:11;6.70;91.10
7666;DHT22;3875;46.562;4.898;2024-03-07T08:10:39;6.80;90.50
7666;DHT22;3875;46.562;4.898;2024-03-07T08:13:10;6.90;90.50
7666;DHT22;3875;46.562;4.898;2024-03-07T08:15:38;7.00;90.10
7666;DHT22;3875;46.562;4.898;2024-03-07T08:18:04;7.10;89.70
7666;DHT22;3875;46.562;4.898;2024-03-07T08:20:37;7.20;89.70
7666;DHT22;3875;46.562;4.898;2024-03-07T08:23:04;7.40;89.10
7666;DHT22;3875;46.562;4.898;2024-03-07T08:25:29;7.40;88.60
7666;DHT22;3875;46.562;4.898;2024-03-07T08:27:57;7.40;88.50
7666;DHT22;3875;46.562;4.898;2024-03-07T08:30:24;7.50;88.40
7666;DHT22;3875;46.562;4.898;2024-03-07T08:32:54;7.60;88.10
7666;DHT22;3875;46.562;4.898;2024-03-07T08:35:21;7.60;88.10
7666;DHT22;3875;46.562;4.898;2024-03-07T08:37:51;7.60;87.60
7666;DHT22;3875;46.562;4.898;2024-03-07T08:40:20;7.60;87.30
7666;DHT22;3875;46.562;4.898;2024-03-07T08:42:47;7.70;86.90
7666;DHT22;3875;46.562;4.898;2024-03-07T08:45:13;7.70;87.40
7666;DHT22;3875;46.562;4.898;2024-03-07T08:47:45;7.90;87.60
7666;DHT22;3875;46.562;4.898;2024-03-07T08:50:12;8.00;87.40
7666;DHT22;3875;46.562;4.898;2024-03-07T08:52:39;8.10;87.30
7666;DHT22;3875;46.562;4.898;2024-03-07T08:55:15;8.30;87.00
7666;DHT22;3875;46.562;4.898;2024-03-07T08:57:42;8.40;86.50
7666;DHT22;3875;46.562;4.898;2024-03-07T09:00:16;8.50;86.10
7666;DHT22;3875;46.562;4.898;2024-03-07T09:02:52;8.60;85.90
7666;DHT22;3875;46.562;4.898;2024-03-07T09:05:35;8.70;84.80
7666;DHT22;3875;46.562;4.898;2024-03-07T09:08:01;8.70;84.80
7666;DHT22;3875;46.562;4.898;2024-03-07T09:10:28;8.70;85.10
7666;DHT22;3875;46.562;4.898;2024-03-07T09:12:57;8.90;85.40
7666;DHT22;3875;46.562;4.898;2024-03-07T09:15:23;9.00;85.10
7666;DHT22;3875;46.562;4.898;2024-03-07T09:17:49;9.10;84.30
7666;DHT22;3875;46.562;4.898;2024-03-07T09:20:15;9.10;84.10
7666;DHT22;3875;46.562;4.898;2024-03-07T09:22:44;9.10;84.00
7666;DHT22;3875;46.562;4.898;2024-03-07T09:25:10;9.10;84.10
7666;DHT22;3875;46.562;4.898;2024-03-07T09:27:36;9.20;84.20
7666;DHT22;3875;46.562;4.898;2024-03-07T09:30:03;9.30;84.50
7666;DHT22;3875;46.562;4.898;2024-03-07T09:32:29;9.50;84.80
7666;DHT22;3875;46.562;4.898;2024-03-07T09:34:58;9.60;83.60
7666;DHT22;3875;46.562;4.898;2024-03-07T09:37:25;9.80;83.60
7666;DHT22;3875;46.562;4.898;2024-03-07T09:39:51;9.90;83.50
7666;DHT22;3875;46.562;4.898;2024-03-07T09:42:17;10.10;83.30
7666;DHT22;3875;46.562;4.898;2024-03-07T09:44:43;10.20;81.80
7666;DHT22;3875;46.562;4.898;2024-03-07T09:47:12;10.30;82.50
7666;DHT22;3875;46.562;4.898;2024-03-07T09:49:39;10.40;82.00
7666;DHT22;3875;46.562;4.898;2024-03-07T09:52:06;10.40;80.80
7666;DHT22;3875;46.562;4.898;2024-03-07T09:54:37;10.40;80.60
7666;DHT22;3875;46.562;4.898;2024-03-07T09:57:06;10.50;81.20
7666;DHT22;3875;46.562;4.898;2024-03-07T09:59:35;10.60;80.90
7666;DHT22;3875;46.562;4.898;2024-03-07T10:02:06;10.70;80.00
7666;DHT22;3875;46.562;4.898;2024-03-07T10:04:43;10.80;80.30
7666;DHT22;3875;46.562;4.898;2024-03-07T10:07:15;11.00;80.10
7666;DHT22;3875;46.562;4.898;2024-03-07T10:09:40;11.00;79.80
7666;DHT22;3875;46.562;4.898;2024-03-07T10:12:07;11.20;80.40
7666;DHT22;3875;46.562;4.898;2024-03-07T10:14:38;11.30;79.20
7666;DHT22;3875;46.562;4.898;2024-03-07T10:17:04;11.40;79.40
7666;DHT22;3875;46.562;4.898;2024-03-07T10:19:35;11.50;78.50
7666;DHT22;3875;46.562;4.898;2024-03-07T10:22:01;11.60;78.80
7666;DHT22;3875;46.562;4.898;2024-03-07T10:24:27;11.70;79.00
7666;DHT22;3875;46.562;4.898;2024-03-07T10:26:54;11.90;78.80
7666;DHT22;3875;46.562;4.898;2024-03-07T10:29:23;12.00;78.80
7666;DHT22;3875;46.562;4.898;2024-03-07T10:31:49;12.10;78.20
7666;DHT22;3875;46.562;4.898;2024-03-07T10:34:15;12.20;77.30
7666;DHT22;3875;46.562;4.898;2024-03-07T10:36:44;12.20;77.50
7666;DHT22;3875;46.562;4.898;2024-03-07T10:39:11;12.20;77.00
7666;DHT22;3875;46.562;4.898;2024-03-07T10:41:46;12.30;78.00
7666;DHT22;3875;46.562;4.898;2024-03-07T10:44:20;12.40;77.90
7666;DHT22;3875;46.562;4.898;2024-03-07T10:46:51;12.50;77.90
7666;DHT22;3875;46.562;4.898;2024-03-07T10:49:19;12.70;77.40
7666;DHT22;3875;46.562;4.898;2024-03-07T10:57:51;13.20;77.50
7666;DHT22;3875;46.562;4.898;2024-03-07T11:00:22;13.40;77.60
7666;DHT22;3875;46.562;4.898;2024-03-07T11:03:06;13.60;76.10
7666;DHT22;3875;46.562;4.898;2024-03-07T11:05:34;13.60;75.90
7666;DHT22;3875;46.562;4.898;2024-03-07T11:08:02;13.70;76.30
7666;DHT22;3875;46.562;4.898;2024-03-07T11:10:33;13.90;75.40
7666;DHT22;3875;46.562;4.898;2024-03-07T11:19:43;14.00;74.70
7666;DHT22;3875;46.562;4.898;2024-03-07T11:22:28;14.20;75.50
7666;DHT22;3875;46.562;4.898;2024-03-07T11:25:09;14.20;74.80
7666;DHT22;3875;46.562;4.898;2024-03-07T11:27:39;14.20;74.00
7666;DHT22;3875;46.562;4.898;2024-03-07T11:30:08;14.10;73.50
7666;DHT22;3875;46.562;4.898;2024-03-07T11:32:38;14.20;73.80
7666;DHT22;3875;46.562;4.898;2024-03-07T11:35:40;14.10;73.10
7666;DHT22;3875;46.562;4.898;2024-03-07T11:45:21;14.30;73.50
7666;DHT22;3875;46.562;4.898;2024-03-07T11:48:04;14.40;73.60
7666;DHT22;3875;46.562;4.898;2024-03-07T11:50:39;14.50;73.70
7666;DHT22;3875;46.562;4.898;2024-03-07T11:53:06;14.60;73.50
7666;DHT22;3875;46.562;4.898;2024-03-07T11:55:37;14.80;73.50
7666;DHT22;3875;46.562;4.898;2024-03-07T11:58:20;14.80;72.40
7666;DHT22;3875;46.562;4.898;2024-03-07T12:01:24;14.90;72.20
7666;DHT22;3875;46.562;4.898;2024-03-07T12:10:24;14.80;71.40
7666;DHT22;3875;46.562;4.898;2024-03-07T12:19:23;15.10;70.10
7666;DHT22;3875;46.562;4.898;2024-03-07T12:21:57;15.20;69.50
7666;DHT22;3875;46.562;4.898;2024-03-07T12:41:17;15.20;68.80
7666;DHT22;3875;46.562;4.898;2024-03-07T12:43:43;15.10;68.70
7666;DHT22;3875;46.562;4.898;2024-03-07T12:46:11;15.20;69.50
7666;DHT22;3875;46.562;4.898;2024-03-07T12:48:40;15.30;68.60
7666;DHT22;3875;46.562;4.898;2024-03-07T12:51:06;15.30;67.80
7666;DHT22;3875;46.562;4.898;2024-03-07T12:53:32;15.40;68.90
7666;DHT22;3875;46.562;4.898;2024-03-07T12:56:00;15.40;68.60
7666;DHT22;3875;46.562;4.898;2024-03-07T12:58:26;15.40;68.60
7666;DHT22;3875;46.562;4.898;2024-03-07T13:00:55;15.40;68.10
7666;DHT22;3875;46.562;4.898;2024-03-07T13:03:24;15.30;68.40
7666;DHT22;3875;46.562;4.898;2024-03-07T13:05:56;15.30;68.10
7666;DHT22;3875;46.562;4.898;2024-03-07T13:08:25;15.30;68.70
7666;DHT22;3875;46.562;4.898;2024-03-07T13:10:51;15.30;68.40
7666;DHT22;3875;46.562;4.898;2024-03-07T13:13:21;15.30;68.10
7666;DHT22;3875;46.562;4.898;2024-03-07T13:15:47;15.30;68.70
7666;DHT22;3875;46.562;4.898;2024-03-07T13:18:13;15.40;68.60
7666;DHT22;3875;46.562;4.898;2024-03-07T13:20:39;15.40;68.90
7666;DHT22;3875;46.562;4.898;2024-03-07T13:23:04;15.40;68.20
7666;DHT22;3875;46.562;4.898;2024-03-07T13:25:31;15.50;67.90
7666;DHT22;3875;46.562;4.898;2024-03-07T13:28:10;15.40;66.90
7666;DHT22;3875;46.562;4.898;2024-03-07T13:30:40;15.30;67.70
7666;DHT22;3875;46.562;4.898;2024-03-07T13:33:05;15.40;68.10
7666;DHT22;3875;46.562;4.898;2024-03-07T13:35:31;15.40;68.30
7666;DHT22;3875;46.562;4.898;2024-03-07T13:37:57;15.40;67.60
7666;DHT22;3875;46.562;4.898;2024-03-07T13:40:25;15.40;67.60
7666;DHT22;3875;46.562;4.898;2024-03-07T13:42:55;15.40;67.70
7666;DHT22;3875;46.562;4.898;2024-03-07T13:45:32;15.50;68.20
7666;DHT22;3875;46.562;4.898;2024-03-07T13:48:02;15.60;67.90
7666;DHT22;3875;46.562;4.898;2024-03-07T13:50:31;15.60;67.80
7666;DHT22;3875;46.562;4.898;2024-03-07T13:52:58;15.60;67.10
7666;DHT22;3875;46.562;4.898;2024-03-07T14:01:28;15.40;67.20
7666;DHT22;3875;46.562;4.898;2024-03-07T14:13:22;15.50;67.60
7666;DHT22;3875;46.562;4.898;2024-03-07T14:25:39;15.70;67.90
7666;DHT22;3875;46.562;4.898;2024-03-07T14:28:11;15.70;67.20
7666;DHT22;3875;46.562;4.898;2024-03-07T14:30:53;15.70;68.00
7666;DHT22;3875;46.562;4.898;2024-03-07T14:33:35;15.80;67.90
7666;DHT22;3875;46.562;4.898;2024-03-07T14:36:14;15.80;67.10
7666;DHT22;3875;46.562;4.898;2024-03-07T14:38:50;15.80;66.60
7666;DHT22;3875;46.562;4.898;2024-03-07T14:41:41;15.70;66.60
7666;DHT22;3875;46.562;4.898;2024-03-07T14:44:09;15.60;66.60
7666;DHT22;3875;46.562;4.898;2024-03-07T14:46:36;15.60;67.20
7666;DHT22;3875;46.562;4.898;2024-03-07T14:49:02;15.70;67.00
7666;DHT22;3875;46.562;4.898;2024-03-07T14:51:30;15.60;66.90
7666;DHT22;3875;46.562;4.898;2024-03-07T14:53:55;15.60;67.50
7666;DHT22;3875;46.562;4.898;2024-03-07T14:56:22;15.70;67.50
7666;DHT22;3875;46.562;4.898;2024-03-07T14:58:48;15.70;67.90
7666;DHT22;3875;46.562;4.898;2024-03-07T15:01:14;15.70;67.90
7666;DHT22;3875;46.562;4.898;2024-03-07T15:03:44;15.60;67.20
7666;DHT22;3875;46.562;4.898;2024-03-07T15:06:11;15.60;67.90
7666;DHT22;3875;46.562;4.898;2024-03-07T15:08:40;15.60;67.60
7666;DHT22;3875;46.562;4.898;2024-03-07T15:13:57;15.60;67.70
7666;DHT22;3875;46.562;4.898;2024-03-07T15:16:23;15.60;68.10
7666;DHT22;3875;46.562;4.898;2024-03-07T15:18:49;15.60;67.30
7666;DHT22;3875;46.562;4.898;2024-03-07T15:21:15;15.50;67.70
7666;DHT22;3875;46.562;4.898;2024-03-07T15:23:43;15.50;67.70
7666;DHT22;3875;46.562;4.898;2024-03-07T15:26:08;15.60;67.90
7666;DHT22;3875;46.562;4.898;2024-03-07T15:28:34;15.60;67.20
7666;DHT22;3875;46.562;4.898;2024-03-07T15:31:01;15.50;67.70
7666;DHT22;3875;46.562;4.898;2024-03-07T15:33:34;15.60;67.60
7666;DHT22;3875;46.562;4.898;2024-03-07T15:36:00;15.60;67.60
7666;DHT22;3875;46.562;4.898;2024-03-07T15:38:28;15.70;67.60
7666;DHT22;3875;46.562;4.898;2024-03-07T15:41:00;15.80;67.80
7666;DHT22;3875;46.562;4.898;2024-03-07T15:43:30;15.90;67.20
7666;DHT22;3875;46.562;4.898;2024-03-07T15:45:55;15.90;67.30
7666;DHT22;3875;46.562;4.898;2024-03-07T15:48:23;16.10;67.30
7666;DHT22;3875;46.562;4.898;2024-03-07T15:50:52;16.50;66.90
7666;DHT22;3875;46.562;4.898;2024-03-07T15:53:18;17.00;65.90
7666;DHT22;3875;46.562;4.898;2024-03-07T15:55:45;17.60;65.20
7666;DHT22;3875;46.562;4.898;2024-03-07T15:58:11;18.40;62.80
7666;DHT22;3875;46.562;4.898;2024-03-07T16:00:37;19.10;60.70
7666;DHT22;3875;46.562;4.898;2024-03-07T16:03:04;19.90;59.20
7666;DHT22;3875;46.562;4.898;2024-03-07T16:05:34;20.70;58.20
7666;DHT22;3875;46.562;4.898;2024-03-07T16:08:02;21.30;56.00
7666;DHT22;3875;46.562;4.898;2024-03-07T16:10:32;21.80;55.30
7666;DHT22;3875;46.562;4.898;2024-03-07T16:13:02;22.20;54.70
7666;DHT22;3875;46.562;4.898;2024-03-07T16:15:29;22.60;53.70
7666;DHT22;3875;46.562;4.898;2024-03-07T16:17:57;22.80;53.50
7666;DHT22;3875;46.562;4.898;2024-03-07T16:20:23;23.00;53.40
7666;DHT22;3875;46.562;4.898;2024-03-07T16:22:49;23.20;53.40
7666;DHT22;3875;46.562;4.898;2024-03-07T16:25:16;23.00;53.60
7666;DHT22;3875;46.562;4.898;2024-03-07T16:27:43;22.70;53.90
7666;DHT22;3875;46.562;4.898;2024-03-07T16:30:15;22.00;54.30
7666;DHT22;3875;46.562;4.898;2024-03-07T16:32:42;20.50;55.20
7666;DHT22;3875;46.562;4.898;2024-03-07T16:35:08;18.90;57.50
7666;DHT22;3875;46.562;4.898;2024-03-07T16:37:40;17.60;59.70
7666;DHT22;3875;46.562;4.898;2024-03-07T16:40:07;16.70;61.80
7666;DHT22;3875;46.562;4.898;2024-03-07T16:42:34;16.00;63.30
7666;DHT22;3875;46.562;4.898;2024-03-07T16:45:01;15.40;64.40
7666;DHT22;3875;46.562;4.898;2024-03-07T16:47:29;15.00;65.10
7666;DHT22;3875;46.562;4.898;2024-03-07T16:49:55;14.60;66.00
7666;DHT22;3875;46.562;4.898;2024-03-07T16:52:20;14.40;66.90
7666;DHT22;3875;46.562;4.898;2024-03-07T16:54:48;14.10;67.40
7666;DHT22;3875;46.562;4.898;2024-03-07T16:57:14;14.00;67.70
7666;DHT22;3875;46.562;4.898;2024-03-07T16:59:40;13.80;68.20
7666;DHT22;3875;46.562;4.898;2024-03-07T17:02:06;13.60;68.50
7666;DHT22;3875;46.562;4.898;2024-03-07T17:04:36;13.40;68.90
7666;DHT22;3875;46.562;4.898;2024-03-07T17:07:02;13.30;69.20
7666;DHT22;3875;46.562;4.898;2024-03-07T17:09:28;13.20;69.60
7666;DHT22;3875;46.562;4.898;2024-03-07T17:11:55;13.10;69.90
7666;DHT22;3875;46.562;4.898;2024-03-07T17:14:20;13.00;70.40
7666;DHT22;3875;46.562;4.898;2024-03-07T17:16:46;12.90;70.80
7666;DHT22;3875;46.562;4.898;2024-03-07T17:19:12;12.80;71.10
7666;DHT22;3875;46.562;4.898;2024-03-07T17:21:38;12.70;71.50
7666;DHT22;3875;46.562;4.898;2024-03-07T17:24:04;12.60;72.00
7666;DHT22;3875;46.562;4.898;2024-03-07T17:26:30;12.50;72.00
7666;DHT22;3875;46.562;4.898;2024-03-07T17:28:56;12.40;71.90
7666;DHT22;3875;46.562;4.898;2024-03-07T17:31:22;12.20;72.30
7666;DHT22;3875;46.562;4.898;2024-03-07T17:33:48;12.10;72.80